createdAt,value
2022-12-19T00:03:16.324Z,62.47
2022-12-19T00:07:17.401Z,64.80
2022-12-19T00:11:20.635Z,66.03
2022-12-19T00:15:21.816Z,57.13
2022-12-19T00:19:22.973Z,62.70
2022-12-19T00:23:24.099Z,65.40
2022-12-19T00:27:25.258Z,62.50
2022-12-19T00:31:30.334Z,63.50
2022-12-19T00:35:31.524Z,63.93
2022-12-19T00:39:32.628Z,63.27
2022-12-19T00:43:34.017Z,69.70
2022-12-19T00:47:35.164Z,68.73
2022-12-19T00:51:37.104Z,66.33
2022-12-19T00:55:38.638Z,59.80
2022-12-19T00:59:40.284Z,62.80
2022-12-19T01:03:52.864Z,58.60
2022-12-19T01:07:44.643Z,69.30
2022-12-19T01:12:04.037Z,63.93
2022-12-19T01:16:07.841Z,71.70
2022-12-19T01:20:10.198Z,68.03
2022-12-19T01:24:11.531Z,69.37
2022-12-19T01:28:14.669Z,70.50
2022-12-19T01:32:16.974Z,73.17
2022-12-19T01:36:19.949Z,71.13
2022-12-19T01:40:21.776Z,73.73
2022-12-19T01:44:25.113Z,80.17
2022-12-19T01:48:36.047Z,71.83
2022-12-19T01:52:37.233Z,71.07
2022-12-19T01:56:41.593Z,71.17
2022-12-19T02:00:43.751Z,78.33
2022-12-19T02:04:46.881Z,73.23
2022-12-19T02:08:51.503Z,75.03
2022-12-19T02:12:52.500Z,73.30
2022-12-19T02:16:57.472Z,79.50
2022-12-19T02:21:14.249Z,76.60
2022-12-19T02:25:20.155Z,69.60
2022-12-19T02:29:27.716Z,71.67
2022-12-19T02:33:56.671Z,68.83
2022-12-19T02:38:01.471Z,67.73
2022-12-19T02:42:08.194Z,71.43
2022-12-19T02:46:11.917Z,70.00
2022-12-19T02:50:13.273Z,70.93
2022-12-19T02:54:15.058Z,71.30
2022-12-19T02:58:31.789Z,70.20
2022-12-19T03:03:00.462Z,73.97
2022-12-19T03:07:22.483Z,72.07
2022-12-19T03:11:27.185Z,71.27
2022-12-19T03:15:29.155Z,68.07
2022-12-19T03:19:31.640Z,69.87
2022-12-19T03:23:33.205Z,67.57
2022-12-19T03:27:36.824Z,71.73
2022-12-19T03:31:39.522Z,74.90
2022-12-19T03:35:42.498Z,70.57
2022-12-19T03:39:48.631Z,72.73
2022-12-19T03:43:49.790Z,75.33
2022-12-19T03:47:57.634Z,78.73
2022-12-19T03:52:11.620Z,70.97
2022-12-19T03:56:40.153Z,67.80
2022-12-19T04:00:46.178Z,67.90
2022-12-19T04:04:53.941Z,72.10
2022-12-19T04:08:57.434Z,71.53
2022-12-19T04:13:08.046Z,71.53
2022-12-19T04:17:30.923Z,62.50
2022-12-19T04:21:38.729Z,73.33
2022-12-19T04:25:43.637Z,64.13
2022-12-19T04:29:45.947Z,67.40
2022-12-19T04:33:47.098Z,65.53
2022-12-19T04:37:48.264Z,72.67
2022-12-19T04:41:49.378Z,66.70
2022-12-19T04:45:55.541Z,65.63
2022-12-19T04:49:53.655Z,65.20
2022-12-19T04:53:54.720Z,74.27
2022-12-19T04:57:55.931Z,74.63
2022-12-19T05:01:57.536Z,72.37
2022-12-19T05:06:11.541Z,73.97
2022-12-19T05:10:12.642Z,64.83
2022-12-19T05:14:15.055Z,66.87
2022-12-19T05:18:16.290Z,68.27
2022-12-19T05:22:17.720Z,69.57
2022-12-19T05:26:19.483Z,79.50
2022-12-19T05:30:22.352Z,70.53
2022-12-19T05:34:29.394Z,77.27
2022-12-19T05:38:30.852Z,64.47
2022-12-19T05:42:32.057Z,66.23
2022-12-19T05:46:33.216Z,70.83
2022-12-19T05:50:34.225Z,77.13
2022-12-19T05:54:36.479Z,64.50
2022-12-19T05:58:38.976Z,66.73
2022-12-19T06:02:40.130Z,68.97
2022-12-19T06:06:41.330Z,66.30
2022-12-19T06:10:42.308Z,68.93
2022-12-19T06:14:43.320Z,71.17
2022-12-19T06:18:45.682Z,65.87
2022-12-19T06:22:47.203Z,68.30
2022-12-19T06:26:48.366Z,72.17
2022-12-19T06:30:49.621Z,73.17
2022-12-19T06:35:06.127Z,70.77
2022-12-19T06:38:57.192Z,77.00
2022-12-19T06:42:58.383Z,68.80
2022-12-19T06:46:59.457Z,72.33
2022-12-19T06:51:01.067Z,68.37
2022-12-19T06:55:02.267Z,66.97
2022-12-19T06:59:04.153Z,63.20
2022-12-19T07:03:09.222Z,69.00
2022-12-19T07:07:13.236Z,72.00
2022-12-19T07:11:14.253Z,70.00
2022-12-19T07:15:15.713Z,69.37
2022-12-19T07:19:17.456Z,64.40
2022-12-19T07:23:21.514Z,72.10
2022-12-19T07:27:22.875Z,67.83
2022-12-19T07:31:24.181Z,61.83
2022-12-19T07:35:25.752Z,60.33
2022-12-19T07:39:27.121Z,61.17
2022-12-19T07:43:28.445Z,60.73
2022-12-19T07:47:29.655Z,59.60
2022-12-19T07:51:30.968Z,61.57
2022-12-19T07:55:33.276Z,62.80
2022-12-19T07:59:38.787Z,61.70
2022-12-19T08:03:40.309Z,67.83
2022-12-19T08:07:44.288Z,61.70
2022-12-19T08:11:47.944Z,66.47
2022-12-19T08:15:50.655Z,64.07
2022-12-19T08:19:53.654Z,72.90
2022-12-19T08:23:58.534Z,71.07
2022-12-19T08:28:05.687Z,71.43
2022-12-19T08:32:09.606Z,69.00
2022-12-19T08:36:16.190Z,62.40
2022-12-19T08:40:19.990Z,66.00
2022-12-19T08:44:23.672Z,72.70
2022-12-19T08:48:27.822Z,68.63
2022-12-19T08:52:30.558Z,67.50
2022-12-19T08:56:34.857Z,67.07
2022-12-19T09:00:38.850Z,61.60
2022-12-19T09:06:05.021Z,59.97
2022-12-19T09:08:47.164Z,65.63
2022-12-19T09:12:55.871Z,68.90
2022-12-19T09:16:57.754Z,76.40
2022-12-19T09:21:03.989Z,74.27
2022-12-19T09:25:12.800Z,72.07
2022-12-19T09:29:21.002Z,73.20
2022-12-19T09:33:23.272Z,75.97
2022-12-19T09:37:26.417Z,73.77
2022-12-19T09:41:49.287Z,73.50
2022-12-19T09:46:15.300Z,72.60
2022-12-19T09:50:44.222Z,76.20
2022-12-19T09:54:55.607Z,72.67
2022-12-19T09:59:04.785Z,69.00
2022-12-19T10:03:21.307Z,78.00
2022-12-19T10:08:01.518Z,78.40
2022-12-19T10:12:42.261Z,76.63
2022-12-19T10:16:12.006Z,81.03
2022-12-19T10:20:35.469Z,71.73
2022-12-19T10:25:09.279Z,81.00
2022-12-19T10:29:22.189Z,73.50
2022-12-19T10:33:34.728Z,74.60
2022-12-19T10:37:49.140Z,73.43
2022-12-19T10:41:50.549Z,80.40
2022-12-19T10:45:56.656Z,76.27
2022-12-19T10:50:05.658Z,81.17
2022-12-19T10:54:07.611Z,72.47
2022-12-19T10:58:22.476Z,77.90
2022-12-19T11:02:40.974Z,79.90
2022-12-19T11:07:02.551Z,74.40
2022-12-19T11:13:03.776Z,75.57
2022-12-19T11:19:15.078Z,82.37
2022-12-19T11:29:33.928Z,79.17
2022-12-19T11:29:40.715Z,77.73
2022-12-19T11:30:48.177Z,71.73
2022-12-19T11:32:36.685Z,73.37
2022-12-19T11:36:02.453Z,83.50
2022-12-19T11:40:17.284Z,78.57
2022-12-19T11:44:31.524Z,89.00
2022-12-19T11:48:45.283Z,82.80
2022-12-19T11:53:11.514Z,82.97
2022-12-19T11:57:12.287Z,78.27
2022-12-19T12:01:31.316Z,79.30
2022-12-19T12:05:43.528Z,70.73
2022-12-19T12:13:45.663Z,79.13
2022-12-19T12:23:13.242Z,69.60
2022-12-19T12:31:32.251Z,74.63
2022-12-19T12:31:45.829Z,68.67
2022-12-19T12:31:53.470Z,68.47
2022-12-19T12:40:07.764Z,72.40
2022-12-19T12:44:12.060Z,68.40
2022-12-19T12:48:25.327Z,66.73
2022-12-19T12:52:48.166Z,66.50
2022-12-19T12:56:50.905Z,64.47
2022-12-19T13:01:15.760Z,66.10
2022-12-19T13:05:25.250Z,60.37
2022-12-19T13:09:32.136Z,62.03
2022-12-19T13:13:56.325Z,61.57
2022-12-19T13:18:10.235Z,56.77
2022-12-19T13:22:25.009Z,55.20
2022-12-19T13:26:46.996Z,52.93
2022-12-19T13:31:21.153Z,53.10
2022-12-19T13:35:39.021Z,61.07
2022-12-19T13:39:54.298Z,56.07
2022-12-19T13:43:47.681Z,52.07
2022-12-19T13:47:52.693Z,48.67
2022-12-19T13:51:59.148Z,51.07
2022-12-19T13:56:08.100Z,53.03
2022-12-19T14:00:15.439Z,51.23
2022-12-19T14:04:35.075Z,52.47
2022-12-19T14:08:41.024Z,50.93
2022-12-19T14:13:44.875Z,49.47
2022-12-19T14:17:15.842Z,51.87
2022-12-19T14:22:07.322Z,48.60
2022-12-19T14:28:17.162Z,46.27
2022-12-19T14:30:30.701Z,51.60
2022-12-19T14:34:35.522Z,52.73
2022-12-19T14:39:22.152Z,44.87
2022-12-19T14:43:57.659Z,43.43
2022-12-19T14:53:52.151Z,51.80
2022-12-19T14:54:42.089Z,50.83
2022-12-19T14:58:57.322Z,48.23
2022-12-19T15:03:06.283Z,42.70
2022-12-19T15:07:12.715Z,41.33
2022-12-19T15:11:55.541Z,42.07
2022-12-19T15:15:55.041Z,39.77
2022-12-19T15:19:56.617Z,40.53
2022-12-19T15:23:59.949Z,40.97
2022-12-19T15:28:01.559Z,40.13
2022-12-19T15:32:03.085Z,47.37
2022-12-19T15:36:08.263Z,45.60
2022-12-19T15:40:15.233Z,41.87
2022-12-19T15:44:20.904Z,39.27
2022-12-19T15:48:22.419Z,40.73
2022-12-19T15:52:25.084Z,37.87
2022-12-19T15:56:34.010Z,41.42
2022-12-19T16:00:40.337Z,41.73
2022-12-19T16:04:41.543Z,41.60
2022-12-19T16:08:42.759Z,39.40
2022-12-19T16:12:47.681Z,37.30
2022-12-19T16:16:53.805Z,40.53
2022-12-19T16:20:56.611Z,37.97
2022-12-19T16:24:59.449Z,37.27
2022-12-19T16:29:01.507Z,37.13
2022-12-19T16:33:03.207Z,37.67
2022-12-19T16:37:04.404Z,37.70
2022-12-19T16:41:05.740Z,35.93
2022-12-19T16:45:25.795Z,35.07
2022-12-19T16:49:29.345Z,40.60
2022-12-19T16:53:30.718Z,35.17
2022-12-19T16:57:32.020Z,35.40
2022-12-19T17:01:33.747Z,35.70
2022-12-19T17:05:35.380Z,32.20
2022-12-19T17:09:36.594Z,32.00
2022-12-19T17:13:38.300Z,36.37
2022-12-19T17:17:39.295Z,31.07
2022-12-19T17:21:40.415Z,31.53
2022-12-19T17:25:42.225Z,40.63
2022-12-19T17:29:44.013Z,33.93
2022-12-19T17:33:46.084Z,36.17
2022-12-19T17:37:55.402Z,33.27
2022-12-19T17:42:03.303Z,34.37
2022-12-19T17:46:05.148Z,41.10
2022-12-19T17:50:13.271Z,40.77
2022-12-19T17:54:14.767Z,36.43
2022-12-19T17:58:16.241Z,37.77
2022-12-19T18:02:23.756Z,37.73
2022-12-19T18:06:28.489Z,41.30
2022-12-19T18:10:31.857Z,42.77
2022-12-19T18:14:34.557Z,36.13
2022-12-19T18:18:36.300Z,38.40
2022-12-19T18:22:38.003Z,37.23
2022-12-19T18:26:39.671Z,39.23
2022-12-19T18:30:43.378Z,40.03
2022-12-19T18:34:45.000Z,38.90
2022-12-19T18:38:48.253Z,38.80
2022-12-19T18:42:49.729Z,43.97
2022-12-19T18:46:52.397Z,37.03
2022-12-19T18:50:55.219Z,42.25
2022-12-19T18:54:59.217Z,42.73
2022-12-19T18:59:02.487Z,44.40
2022-12-19T19:03:16.856Z,46.37
2022-12-19T19:07:19.385Z,44.23
2022-12-19T19:11:24.435Z,40.57
2022-12-19T19:15:32.496Z,42.53
2022-12-19T19:19:34.248Z,42.90
2022-12-19T19:23:39.059Z,43.30
2022-12-19T19:27:41.582Z,47.70
2022-12-19T19:31:46.164Z,45.27
2022-12-19T19:35:51.082Z,42.27
2022-12-19T19:39:52.345Z,37.97
2022-12-19T19:43:54.480Z,36.57
2022-12-19T19:47:56.059Z,40.73
2022-12-19T19:52:02.499Z,36.33
2022-12-19T19:56:03.489Z,37.33
2022-12-19T20:00:06.481Z,39.80
2022-12-19T20:04:09.100Z,36.40
2022-12-19T20:08:11.492Z,40.57
2022-12-19T20:12:14.011Z,40.27
2022-12-19T20:16:18.458Z,36.60
2022-12-19T20:20:20.819Z,39.33
2022-12-19T20:24:22.433Z,35.93
2022-12-19T20:28:24.319Z,48.83
2022-12-19T20:32:26.094Z,41.27
2022-12-19T20:36:28.098Z,37.30
2022-12-19T20:40:29.479Z,34.73
2022-12-19T20:44:31.659Z,36.73
2022-12-19T20:48:34.195Z,35.47
2022-12-19T20:52:35.732Z,36.43
2022-12-19T20:56:38.719Z,34.73
2022-12-19T21:00:39.888Z,37.03
2022-12-19T21:04:41.114Z,36.83
2022-12-19T21:08:44.238Z,36.57
2022-12-19T21:12:47.904Z,35.77
2022-12-19T21:16:50.979Z,34.10
2022-12-19T21:20:52.606Z,36.73
2022-12-19T21:24:54.015Z,32.60
2022-12-19T21:28:57.444Z,34.33
2022-12-19T21:33:00.633Z,34.77
2022-12-19T21:37:02.212Z,37.23
2022-12-19T21:41:06.180Z,35.03
2022-12-19T21:45:08.495Z,39.93
2022-12-19T21:49:09.722Z,36.90
2022-12-19T21:53:10.786Z,36.30
2022-12-19T21:57:11.914Z,38.90
2022-12-19T22:01:13.955Z,34.47
2022-12-19T22:05:15.603Z,36.67
2022-12-19T22:09:20.116Z,34.97
2022-12-19T22:13:21.454Z,38.13
2022-12-19T22:17:22.847Z,30.20
2022-12-19T22:21:25.556Z,29.07
2022-12-19T22:25:26.999Z,29.43
2022-12-19T22:29:27.965Z,31.93
2022-12-19T22:33:29.677Z,39.60
2022-12-19T22:37:30.950Z,38.57
2022-12-19T22:41:33.887Z,39.87
2022-12-19T22:45:35.259Z,41.23
2022-12-19T22:49:36.295Z,38.60
2022-12-19T22:53:38.455Z,35.73
2022-12-19T22:57:40.214Z,37.87
2022-12-19T23:01:43.150Z,28.40
2022-12-19T23:05:51.558Z,34.73
2022-12-19T23:09:49.715Z,31.23
2022-12-19T23:13:51.125Z,33.67
2022-12-19T23:17:52.467Z,28.77
2022-12-19T23:21:53.549Z,32.47
2022-12-19T23:25:54.521Z,31.17
2022-12-19T23:29:55.738Z,32.77
2022-12-19T23:33:57.636Z,30.93
2022-12-19T23:37:58.790Z,31.73
2022-12-19T23:42:00.113Z,30.30
2022-12-19T23:46:06.987Z,30.57
2022-12-19T23:50:08.806Z,33.10
2022-12-19T23:54:10.095Z,38.13
2022-12-19T23:58:16.558Z,38.87
